Terminal Aerodrome Forecast
Issued by NWS Blacksburg, VA

Current Version | Previous Version | Graphics & Text | Print | Product List | Glossary On
Versions: 1 2 3 4 5 6 7 8 9 10 11 12 13 14 15 16 17 18 19 20 21 22 23 24 25 26 27 28 29 30 31 32 33 34 35 36 37 38 39 40
000
FTUS41 KRNK 241144
TAFBLF
TAF
KBLF 241144Z 2412/2512 27008KT P6SM SCT008 OVC012
      TEMPO 2412/2414 BKN008
     FM241600 28009KT P6SM BKN035 BKN250
     FM241700 28012G22KT P6SM BKN045 BKN250
     FM242000 28010G20KT P6SM SCT045 BKN250
     FM250300 28004KT P6SM SCT250=

USA.gov is the U.S. government's official web portal to all federal, state and local government web resources and services.